createdAt,value
2023-04-18T00:00:41.760Z,90.39
2023-04-18T00:01:42.168Z,90.39
2023-04-18T00:02:42.526Z,90.49
2023-04-18T00:03:43.085Z,90.59
2023-04-18T00:04:43.222Z,90.70
2023-04-18T00:05:43.522Z,90.80
2023-04-18T00:06:43.924Z,91.01
2023-04-18T00:07:44.212Z,91.11
2023-04-18T00:08:44.587Z,91.11
2023-04-18T00:09:45.059Z,91.11
2023-04-18T00:10:45.307Z,91.32
2023-04-18T00:11:45.650Z,91.42
2023-04-18T00:12:46.030Z,91.52
2023-04-18T00:13:46.376Z,91.63
2023-04-18T00:14:46.719Z,91.73
2023-04-18T00:15:47.123Z,91.83
2023-04-18T00:16:47.529Z,92.04
2023-04-18T00:17:47.822Z,92.04
2023-04-18T00:18:48.149Z,92.14
2023-04-18T00:19:48.722Z,92.35
2023-04-18T00:20:48.848Z,92.46
2023-04-18T00:21:49.193Z,92.66
2023-04-18T00:22:49.556Z,92.86
2023-04-18T00:23:49.901Z,92.97
2023-04-18T00:24:50.247Z,92.97
2023-04-18T00:25:50.634Z,93.07
2023-04-18T00:26:50.951Z,93.18
2023-04-18T00:27:51.314Z,93.28
2023-04-18T00:28:51.653Z,93.49
2023-04-18T00:29:52.000Z,93.49
2023-04-18T00:30:52.376Z,93.49
2023-04-18T00:31:52.689Z,93.49
2023-04-18T00:32:53.068Z,93.49
2023-04-18T00:33:53.372Z,93.59
2023-04-18T00:34:53.714Z,93.73
2023-04-18T00:35:54.080Z,93.94
2023-04-18T00:36:54.419Z,94.04
2023-04-18T00:37:54.784Z,94.25
2023-04-18T00:38:55.098Z,94.35
2023-04-18T00:39:55.466Z,94.46
2023-04-18T00:40:55.835Z,94.56
2023-04-18T00:41:56.160Z,94.67
2023-04-18T00:42:56.505Z,94.67
2023-04-18T00:43:56.861Z,94.77
2023-04-18T00:44:57.224Z,94.67
2023-04-18T00:45:57.558Z,94.77
2023-04-18T00:46:57.913Z,94.92
2023-04-18T00:47:58.338Z,94.92
2023-04-18T00:48:58.612Z,95.02
2023-04-18T00:49:58.944Z,95.02
2023-04-18T00:50:59.340Z,95.12
2023-04-18T00:51:59.640Z,95.12
2023-04-18T00:52:59.993Z,95.22
2023-04-18T00:54:00.349Z,95.22
2023-04-18T00:55:00.704Z,95.32
2023-04-18T00:56:01.092Z,95.32
2023-04-18T00:57:01.388Z,95.53
2023-04-18T00:58:01.730Z,95.43
2023-04-18T00:59:02.095Z,95.43
2023-04-18T01:00:02.462Z,95.43
2023-04-18T01:01:02.937Z,95.43
2023-04-18T01:02:03.230Z,95.53
2023-04-18T01:03:03.716Z,95.64
2023-04-18T01:04:03.900Z,95.74
2023-04-18T01:05:04.195Z,95.84
2023-04-18T01:06:04.546Z,96.05
2023-04-18T01:07:04.897Z,96.15
2023-04-18T01:08:05.232Z,96.30
2023-04-18T01:09:05.609Z,96.41
2023-04-18T01:10:05.939Z,96.51
2023-04-18T01:11:06.309Z,96.61
2023-04-18T01:12:06.642Z,96.72
2023-04-18T01:13:06.981Z,96.82
2023-04-18T01:14:07.328Z,96.92
2023-04-18T01:15:07.755Z,96.92
2023-04-18T01:16:08.093Z,97.13
2023-04-18T01:17:08.378Z,97.13
2023-04-18T01:18:08.745Z,97.13
2023-04-18T01:19:09.091Z,97.28
2023-04-18T01:20:09.434Z,97.33
2023-04-18T01:21:09.802Z,97.38
2023-04-18T01:22:10.136Z,97.59
2023-04-18T01:23:10.570Z,97.59
2023-04-18T01:24:10.980Z,97.59
2023-04-18T01:25:11.181Z,97.79
2023-04-18T01:26:11.572Z,98.00
2023-04-18T01:27:11.908Z,98.00
2023-04-18T01:28:12.255Z,97.89
2023-04-18T01:29:12.678Z,98.10
2023-04-18T01:30:12.936Z,98.00
2023-04-18T01:31:13.339Z,98.10
2023-04-18T01:32:13.631Z,98.21
2023-04-18T01:33:13.962Z,98.21
2023-04-18T01:34:14.552Z,98.21
2023-04-18T01:35:14.632Z,98.21
2023-04-18T01:36:14.999Z,98.21
2023-04-18T01:37:15.354Z,98.21
2023-04-18T01:38:15.692Z,98.31
2023-04-18T01:39:16.028Z,98.10
2023-04-18T01:40:16.374Z,98.10
2023-04-18T01:41:16.735Z,98.21
2023-04-18T01:42:17.090Z,98.25
2023-04-18T01:43:17.438Z,98.46
2023-04-18T01:44:17.786Z,98.56
2023-04-18T01:45:18.113Z,98.56
2023-04-18T01:46:18.521Z,98.56
2023-04-18T01:47:18.847Z,98.77
2023-04-18T01:48:19.183Z,98.77
2023-04-18T01:49:19.517Z,98.77
2023-04-18T01:50:19.854Z,98.87
2023-04-18T01:51:20.261Z,98.87
2023-04-18T01:52:20.572Z,98.87
2023-04-18T01:53:20.898Z,98.87
2023-04-18T01:54:21.260Z,98.77
2023-04-18T01:55:21.595Z,98.77
2023-04-18T01:56:21.959Z,98.56
2023-04-18T01:57:22.297Z,98.56
2023-04-18T01:58:22.638Z,98.56
2023-04-18T01:59:22.997Z,98.46
2023-04-18T02:00:23.321Z,98.46
2023-04-18T02:01:23.708Z,98.46
2023-04-18T02:02:24.111Z,98.35
2023-04-18T02:03:24.655Z,98.35
2023-04-18T02:04:24.711Z,98.25
2023-04-18T02:05:25.059Z,98.25
2023-04-18T02:06:25.418Z,98.21
2023-04-18T02:07:25.758Z,98.21
2023-04-18T02:08:26.109Z,98.21
2023-04-18T02:09:26.484Z,98.10
2023-04-18T02:10:26.796Z,98.10
2023-04-18T02:11:27.177Z,98.10
2023-04-18T02:12:27.505Z,98.10
2023-04-18T02:13:27.848Z,98.10
2023-04-18T02:14:28.183Z,98.21
2023-04-18T02:15:28.526Z,98.21
2023-04-18T02:16:28.899Z,98.21
2023-04-18T02:17:29.288Z,98.10
2023-04-18T02:18:29.623Z,98.00
2023-04-18T02:19:29.950Z,97.89
2023-04-18T02:20:30.296Z,97.79
2023-04-18T02:21:30.666Z,97.49
2023-04-18T02:22:30.982Z,97.07
2023-04-18T02:23:31.326Z,96.97
2023-04-18T02:24:31.668Z,96.97
2023-04-18T02:25:32.007Z,96.97
2023-04-18T02:26:32.363Z,96.97
2023-04-18T02:27:32.724Z,96.97
2023-04-18T02:28:33.064Z,96.97
2023-04-18T02:29:33.395Z,96.97
2023-04-18T02:30:33.743Z,96.86
2023-04-18T02:31:34.148Z,96.86
2023-04-18T02:32:34.467Z,96.86
2023-04-18T02:33:34.787Z,96.97
2023-04-18T02:34:35.122Z,96.97
2023-04-18T02:35:35.471Z,96.86
2023-04-18T02:36:35.830Z,96.91
2023-04-18T02:37:36.165Z,96.91
2023-04-18T02:38:36.517Z,96.91
2023-04-18T02:39:36.888Z,96.80
2023-04-18T02:40:37.223Z,96.80
2023-04-18T02:41:37.633Z,96.91
2023-04-18T02:42:37.899Z,96.91
2023-04-18T02:43:38.254Z,96.91
2023-04-18T02:44:38.586Z,96.91
2023-04-18T02:45:38.952Z,96.91
2023-04-18T02:46:39.281Z,96.91
2023-04-18T02:47:51.321Z,97.01
2023-04-18T02:48:39.977Z,97.11
2023-04-18T02:49:40.337Z,97.32
2023-04-18T02:50:40.657Z,97.36
2023-04-18T02:51:41.082Z,97.57
2023-04-18T02:52:42.235Z,97.67
2023-04-18T02:53:48.339Z,97.67
2023-04-18T02:54:42.045Z,97.78
2023-04-18T02:55:42.389Z,97.57
2023-04-18T02:56:44.330Z,97.78
2023-04-18T02:57:43.074Z,97.67
2023-04-18T02:58:43.428Z,97.78
2023-04-18T02:59:43.771Z,97.88
2023-04-18T03:00:44.105Z,97.99
2023-04-18T03:01:44.611Z,98.19
2023-04-18T03:02:44.931Z,98.30
2023-04-18T03:03:45.150Z,98.44
2023-04-18T03:04:45.514Z,98.65
2023-04-18T03:05:45.849Z,98.75
2023-04-18T03:06:46.200Z,98.86
2023-04-18T03:07:46.544Z,99.07
2023-04-18T03:08:46.900Z,99.27
2023-04-18T03:09:47.241Z,99.27
2023-04-18T03:10:47.596Z,99.27
2023-04-18T03:11:47.958Z,99.38
2023-04-18T03:12:48.297Z,99.38
2023-04-18T03:13:48.640Z,99.38
2023-04-18T03:14:48.984Z,99.38
2023-04-18T03:15:49.369Z,99.38
2023-04-18T03:16:50.221Z,99.48
2023-04-18T03:17:50.074Z,99.58
2023-04-18T03:18:50.542Z,99.38
2023-04-18T03:19:50.730Z,99.38
2023-04-18T03:20:51.076Z,99.48
2023-04-18T03:21:51.477Z,99.48
2023-04-18T03:22:51.770Z,99.58
2023-04-18T03:23:52.117Z,99.58
2023-04-18T03:24:52.448Z,99.58
2023-04-18T03:25:52.813Z,99.69
2023-04-18T03:26:53.217Z,99.69
2023-04-18T03:27:53.484Z,99.64
2023-04-18T03:28:53.827Z,99.54
2023-04-18T03:29:54.173Z,99.54
2023-04-18T03:30:54.549Z,99.64
2023-04-18T03:31:54.876Z,99.64
2023-04-18T03:32:55.260Z,99.64
2023-04-18T03:33:55.607Z,99.74
2023-04-18T03:34:55.971Z,99.54
2023-04-18T03:35:56.338Z,99.54
2023-04-18T03:36:56.692Z,99.64
2023-04-18T03:37:56.960Z,99.54
2023-04-18T03:38:57.201Z,99.54
2023-04-18T03:39:57.484Z,99.64
2023-04-18T03:40:57.775Z,99.69
2023-04-18T03:41:58.088Z,99.79
2023-04-18T03:42:58.481Z,99.90
2023-04-18T03:43:58.696Z,99.79
2023-04-18T03:44:58.988Z,99.90
2023-04-18T03:45:59.292Z,99.99
2023-04-18T03:46:59.590Z,99.99
2023-04-18T03:47:59.875Z,99.99
2023-04-18T03:49:00.130Z,99.99
2023-04-18T03:50:00.424Z,99.99
2023-04-18T03:51:00.703Z,99.99
2023-04-18T03:52:01.062Z,99.99
2023-04-18T03:53:01.306Z,99.99
2023-04-18T03:54:01.581Z,99.99
2023-04-18T03:55:01.911Z,99.99
2023-04-18T03:56:02.228Z,99.99
2023-04-18T03:57:02.478Z,99.99
2023-04-18T03:58:02.758Z,99.99
2023-04-18T03:59:03.034Z,99.99
2023-04-18T04:00:03.345Z,99.99
2023-04-18T04:01:03.508Z,99.99
2023-04-18T04:02:03.983Z,99.99
2023-04-18T04:03:04.230Z,99.99
2023-04-18T04:04:04.338Z,99.99
2023-04-18T04:05:04.686Z,99.99
2023-04-18T04:06:04.829Z,99.99
2023-04-18T04:07:05.039Z,99.99
2023-04-18T04:08:05.295Z,99.99
2023-04-18T04:09:05.564Z,99.99
2023-04-18T04:10:05.860Z,99.99
2023-04-18T04:11:06.031Z,99.99
2023-04-18T04:12:06.208Z,99.99
2023-04-18T04:13:06.357Z,99.99
2023-04-18T04:14:06.663Z,99.99
2023-04-18T04:15:06.955Z,99.99
2023-04-18T04:16:07.156Z,99.99
2023-04-18T04:17:07.323Z,99.99
2023-04-18T04:18:07.530Z,99.99
2023-04-18T04:19:07.650Z,99.99
2023-04-18T04:20:07.823Z,99.99
2023-04-18T04:21:07.992Z,99.99
2023-04-18T04:22:08.186Z,99.99
2023-04-18T04:23:08.357Z,99.99
2023-04-18T04:24:08.528Z,99.99
2023-04-18T04:25:08.705Z,99.99
2023-04-18T04:26:08.893Z,99.99
2023-04-18T04:27:09.065Z,99.99
2023-04-18T04:28:09.236Z,99.99
2023-04-18T04:29:09.405Z,99.99
2023-04-18T04:30:11.855Z,99.99
2023-04-18T04:31:09.867Z,99.99
2023-04-18T04:32:10.129Z,99.99
2023-04-18T04:33:10.213Z,99.99
2023-04-18T04:34:10.403Z,99.99
2023-04-18T04:35:10.558Z,99.99
2023-04-18T04:36:10.732Z,99.99
2023-04-18T04:37:10.917Z,99.99
2023-04-18T04:38:11.197Z,99.99
2023-04-18T04:39:11.478Z,99.99
2023-04-18T04:40:11.640Z,99.88
2023-04-18T04:41:11.836Z,99.63
2023-04-18T04:42:12.001Z,99.52
2023-04-18T04:43:12.164Z,99.43
2023-04-18T04:44:12.582Z,99.32
2023-04-18T04:45:12.653Z,99.01
2023-04-18T04:46:12.998Z,98.91
2023-04-18T04:47:13.096Z,98.80
2023-04-18T04:48:13.371Z,98.65
2023-04-18T04:49:13.562Z,98.44
2023-04-18T04:50:13.718Z,98.03
2023-04-18T04:51:14.048Z,98.03
2023-04-18T04:52:14.233Z,98.03
2023-04-18T04:53:14.363Z,97.93
2023-04-18T04:54:14.748Z,97.83
2023-04-18T04:55:14.745Z,97.47
2023-04-18T04:56:15.029Z,97.41
2023-04-18T04:57:15.223Z,97.62
2023-04-18T04:58:15.385Z,97.52
2023-04-18T04:59:15.588Z,97.47
2023-04-18T05:00:15.863Z,97.26
2023-04-18T05:01:16.075Z,97.16
2023-04-18T05:02:16.306Z,97.06
2023-04-18T05:03:16.634Z,97.26
2023-04-18T05:04:16.997Z,97.16
2023-04-18T05:05:17.110Z,97.10
2023-04-18T05:06:17.292Z,97.06
2023-04-18T05:07:17.502Z,96.95
2023-04-18T05:08:17.645Z,97.06
2023-04-18T05:09:17.936Z,96.54
2023-04-18T05:10:18.229Z,96.39
2023-04-18T05:11:18.526Z,95.77
2023-04-18T05:12:18.838Z,96.02
2023-04-18T05:13:19.013Z,95.98
2023-04-18T05:14:19.191Z,95.56
2023-04-18T05:15:19.362Z,95.46
2023-04-18T05:16:19.715Z,95.15
2023-04-18T05:17:19.987Z,95.25
2023-04-18T05:18:20.263Z,95.25
2023-04-18T05:19:20.560Z,95.36
2023-04-18T05:20:20.866Z,95.15
2023-04-18T05:21:21.060Z,95.04
2023-04-18T05:22:21.263Z,95.00
2023-04-18T05:23:21.541Z,94.79
2023-04-18T05:24:21.842Z,94.48
2023-04-18T05:25:22.150Z,94.23
2023-04-18T05:26:22.341Z,93.30
2023-04-18T05:27:22.643Z,93.20
2023-04-18T05:28:22.808Z,93.04
2023-04-18T05:29:23.100Z,92.99
2023-04-18T05:30:23.408Z,92.89
2023-04-18T05:31:23.659Z,92.79
2023-04-18T05:32:23.935Z,92.38
2023-04-18T05:33:24.198Z,92.38
2023-04-18T05:34:24.514Z,92.48
2023-04-18T05:35:24.804Z,92.68
2023-04-18T05:36:24.985Z,91.96
2023-04-18T05:37:25.203Z,91.71
2023-04-18T05:38:25.351Z,91.71
2023-04-18T05:39:25.519Z,91.61
2023-04-18T05:40:25.698Z,91.65
2023-04-18T05:41:25.896Z,91.61
2023-04-18T05:42:26.079Z,91.40
2023-04-18T05:43:26.243Z,91.40
2023-04-18T05:44:26.419Z,91.20
2023-04-18T05:45:26.596Z,91.09
2023-04-18T05:46:26.813Z,91.40
2023-04-18T05:47:27.145Z,91.50
2023-04-18T05:48:27.356Z,91.86
2023-04-18T05:49:27.656Z,92.27
2023-04-18T05:50:27.964Z,92.17
2023-04-18T05:51:28.149Z,91.90
2023-04-18T05:52:28.475Z,92.27
2023-04-18T05:53:28.749Z,92.27
2023-04-18T05:54:29.047Z,92.17
2023-04-18T05:55:29.352Z,92.07
2023-04-18T05:56:29.533Z,91.61
2023-04-18T05:57:29.734Z,91.26
2023-04-18T05:58:29.992Z,90.59
2023-04-18T05:59:30.167Z,89.46
2023-04-18T06:00:30.471Z,89.29
2023-04-18T06:01:30.768Z,89.40
2023-04-18T06:02:31.065Z,89.19
2023-04-18T06:03:31.447Z,89.19
2023-04-18T06:04:31.689Z,89.19
2023-04-18T06:05:32.123Z,88.98
2023-04-18T06:06:31.915Z,88.84
2023-04-18T06:07:32.234Z,88.57
2023-04-18T06:08:32.410Z,88.68
2023-04-18T06:09:32.574Z,88.47
2023-04-18T06:10:32.876Z,87.95
2023-04-18T06:11:33.216Z,87.74
2023-04-18T06:12:33.395Z,87.44
2023-04-18T06:13:33.554Z,87.34
2023-04-18T06:14:33.853Z,87.13
2023-04-18T06:15:34.153Z,87.29
2023-04-18T06:16:34.562Z,86.88
2023-04-18T06:17:34.683Z,86.78
2023-04-18T06:18:34.816Z,86.47
2023-04-18T06:19:34.987Z,86.57
2023-04-18T06:20:35.325Z,86.36
2023-04-18T06:21:35.464Z,86.36
2023-04-18T06:22:35.831Z,86.05
2023-04-18T06:23:35.955Z,85.85
2023-04-18T06:24:36.261Z,86.02
2023-04-18T06:25:36.426Z,85.09
2023-04-18T06:26:36.746Z,84.78
2023-04-18T06:27:36.940Z,84.16
2023-04-18T06:28:37.104Z,84.06
2023-04-18T06:29:38.045Z,83.91
2023-04-18T06:30:37.722Z,84.01
2023-04-18T06:31:37.888Z,84.12
2023-04-18T06:32:38.291Z,83.47
2023-04-18T06:33:38.486Z,83.15
2023-04-18T06:34:38.667Z,80.99
2023-04-18T06:35:38.829Z,79.55
2023-04-18T06:36:38.994Z,79.44
2023-04-18T06:37:39.329Z,78.14
2023-04-18T06:38:39.502Z,78.62
2023-04-18T06:39:39.793Z,78.31
2023-04-18T06:40:39.976Z,78.11
2023-04-18T06:41:40.259Z,77.59
2023-04-18T06:42:40.582Z,77.86
2023-04-18T06:43:46.576Z,78.07
2023-04-18T06:44:40.932Z,78.17
2023-04-18T06:45:41.292Z,76.93
2023-04-18T06:46:41.539Z,77.35
2023-04-18T06:47:41.788Z,77.31
2023-04-18T06:48:41.903Z,76.93
2023-04-18T06:49:42.224Z,77.21
2023-04-18T06:50:42.399Z,76.70
2023-04-18T06:51:42.571Z,76.97
2023-04-18T06:52:42.893Z,76.11
2023-04-18T06:53:43.061Z,76.70
2023-04-18T06:54:43.237Z,76.39
2023-04-18T06:55:43.428Z,75.97
2023-04-18T06:56:43.593Z,76.35
2023-04-18T06:57:43.959Z,75.94
2023-04-18T06:58:44.191Z,74.91
2023-04-18T06:59:44.487Z,74.80
2023-04-18T07:00:44.822Z,75.29
2023-04-18T07:01:44.978Z,74.77
2023-04-18T07:02:45.335Z,75.32
2023-04-18T07:03:45.570Z,75.59
2023-04-18T07:04:45.784Z,75.39
2023-04-18T07:05:45.945Z,75.25
2023-04-18T07:06:46.118Z,75.18
2023-04-18T07:07:46.436Z,75.49
2023-04-18T07:08:46.611Z,75.59
2023-04-18T07:09:46.783Z,75.80
2023-04-18T07:10:47.081Z,75.90
2023-04-18T07:11:47.376Z,76.25
2023-04-18T07:12:47.647Z,76.42
2023-04-18T07:13:47.758Z,76.21
2023-04-18T07:14:48.068Z,76.31
2023-04-18T07:15:48.360Z,76.21
2023-04-18T07:16:48.723Z,76.42
2023-04-18T07:17:49.022Z,76.73
2023-04-18T07:18:49.168Z,76.93
2023-04-18T07:19:49.473Z,76.79
2023-04-18T07:20:49.756Z,76.90
2023-04-18T07:21:49.940Z,77.27
2023-04-18T07:22:50.128Z,76.18
2023-04-18T07:23:50.293Z,76.79
2023-04-18T07:24:50.607Z,76.79
2023-04-18T07:25:50.781Z,76.90
2023-04-18T07:26:52.527Z,76.07
2023-04-18T07:27:51.288Z,76.48
2023-04-18T07:28:51.447Z,76.38
2023-04-18T07:29:51.742Z,76.38
2023-04-18T07:30:52.073Z,76.38
2023-04-18T07:31:52.208Z,76.14
2023-04-18T07:32:52.423Z,76.14
2023-04-18T07:33:52.576Z,76.14
2023-04-18T07:34:52.763Z,76.65
2023-04-18T07:35:53.163Z,77.44
2023-04-18T07:36:53.224Z,76.00
2023-04-18T07:37:53.533Z,75.52
2023-04-18T07:38:53.700Z,76.00
2023-04-18T07:39:53.894Z,75.80
2023-04-18T07:40:54.072Z,75.90
2023-04-18T07:41:54.373Z,75.90
2023-04-18T07:42:54.690Z,75.49
2023-04-18T07:43:54.853Z,75.38
2023-04-18T07:44:55.151Z,75.52
2023-04-18T07:45:55.367Z,75.90
2023-04-18T07:46:55.525Z,75.04
2023-04-18T07:47:55.729Z,75.25
2023-04-18T07:48:55.891Z,75.04
2023-04-18T07:49:56.068Z,74.80
2023-04-18T07:50:56.238Z,74.63
2023-04-18T07:51:56.537Z,74.84
2023-04-18T07:52:56.857Z,74.53
2023-04-18T07:53:57.024Z,73.85
2023-04-18T07:54:57.211Z,74.57
2023-04-18T07:55:57.412Z,74.36
2023-04-18T07:56:57.579Z,74.74
2023-04-18T07:57:57.898Z,74.91
2023-04-18T07:58:58.179Z,74.43
2023-04-18T07:59:58.476Z,74.74
2023-04-18T08:00:58.762Z,74.29
2023-04-18T08:01:59.086Z,73.78
2023-04-18T08:02:59.420Z,74.22
2023-04-18T08:03:59.611Z,74.98
2023-04-18T08:04:59.834Z,75.80
2023-04-18T08:05:59.895Z,76.17
2023-04-18T08:07:00.208Z,76.38
2023-04-18T08:08:00.411Z,75.87
2023-04-18T08:09:00.585Z,76.72
2023-04-18T08:10:00.750Z,77.85
2023-04-18T08:11:01.053Z,77.68
2023-04-18T08:12:01.231Z,77.89
2023-04-18T08:13:01.549Z,78.40
2023-04-18T08:14:01.859Z,78.06
2023-04-18T08:15:02.019Z,77.30
2023-04-18T08:16:02.186Z,76.89
2023-04-18T08:17:02.356Z,77.23
2023-04-18T08:18:02.577Z,78.06
2023-04-18T08:19:02.824Z,78.47
2023-04-18T08:20:03.131Z,78.27
2023-04-18T08:21:03.375Z,78.85
2023-04-18T08:22:03.499Z,77.81
2023-04-18T08:23:07.894Z,78.02
2023-04-18T08:24:03.971Z,77.92
2023-04-18T08:25:05.704Z,77.98
2023-04-18T08:26:04.567Z,77.68
2023-04-18T08:27:04.770Z,76.86
2023-04-18T08:28:05.052Z,77.00
2023-04-18T08:29:05.223Z,77.40
2023-04-18T08:30:05.389Z,77.10
2023-04-18T08:31:05.689Z,77.06
2023-04-18T08:32:06.057Z,75.93
2023-04-18T08:33:06.215Z,76.04
2023-04-18T08:34:06.360Z,76.20
2023-04-18T08:35:06.657Z,75.52
2023-04-18T08:36:06.960Z,75.62
2023-04-18T08:37:07.321Z,75.73
2023-04-18T08:38:07.474Z,75.69
2023-04-18T08:39:07.649Z,75.69
2023-04-18T08:40:07.846Z,75.38
2023-04-18T08:41:08.010Z,75.62
2023-04-18T08:42:08.175Z,75.69
2023-04-18T08:43:08.490Z,74.87
2023-04-18T08:44:08.664Z,74.84
2023-04-18T08:45:08.844Z,74.53
2023-04-18T08:46:09.070Z,74.53
2023-04-18T08:47:09.204Z,74.84
2023-04-18T08:48:09.467Z,74.73
2023-04-18T08:49:10.736Z,74.80
2023-04-18T08:50:09.747Z,75.01
2023-04-18T08:51:09.914Z,74.43
2023-04-18T08:52:10.105Z,74.77
2023-04-18T08:53:10.317Z,75.45
2023-04-18T08:54:10.443Z,75.76
2023-04-18T08:55:10.640Z,75.31
2023-04-18T08:56:10.830Z,75.69
2023-04-18T08:57:11.116Z,75.56
2023-04-18T08:58:11.318Z,75.66
2023-04-18T08:59:11.661Z,75.18
2023-04-18T09:00:11.687Z,74.36
2023-04-18T09:01:11.878Z,74.22
2023-04-18T09:02:12.081Z,74.22
2023-04-18T09:03:12.284Z,74.19
2023-04-18T09:04:12.451Z,73.36
2023-04-18T09:05:12.597Z,73.88
2023-04-18T09:06:12.765Z,74.22
2023-04-18T09:07:12.946Z,73.91
2023-04-18T09:08:13.149Z,74.66
2023-04-18T09:09:13.559Z,75.48
2023-04-18T09:10:13.502Z,75.48
2023-04-18T09:11:13.675Z,75.18
2023-04-18T09:12:13.864Z,75.31
2023-04-18T09:13:14.094Z,75.99
2023-04-18T09:14:14.403Z,75.18
2023-04-18T09:15:14.429Z,75.28
2023-04-18T09:16:14.613Z,75.69
2023-04-18T09:17:14.749Z,75.55
2023-04-18T09:18:14.942Z,74.73
2023-04-18T09:19:15.517Z,74.77
2023-04-18T09:20:15.283Z,75.07
2023-04-18T09:21:15.477Z,75.07
2023-04-18T09:22:15.671Z,75.31
2023-04-18T09:23:15.899Z,75.73
2023-04-18T09:24:16.061Z,75.93
2023-04-18T09:25:16.255Z,75.62
2023-04-18T09:26:16.450Z,76.24
2023-04-18T09:27:16.644Z,76.75
2023-04-18T09:28:16.855Z,76.10
2023-04-18T09:29:17.010Z,75.07
2023-04-18T09:30:17.193Z,75.69
2023-04-18T09:31:17.410Z,74.77
2023-04-18T09:32:17.567Z,74.66
2023-04-18T09:33:17.788Z,74.97
2023-04-18T09:34:17.951Z,74.22
2023-04-18T09:35:18.134Z,74.11
2023-04-18T09:36:18.309Z,74.43
2023-04-18T09:37:18.505Z,73.81
2023-04-18T09:38:18.747Z,74.11
2023-04-18T09:39:18.927Z,74.94
2023-04-18T09:40:19.104Z,74.15
2023-04-18T09:41:21.556Z,74.66
2023-04-18T09:42:19.446Z,75.18
2023-04-18T09:43:19.641Z,75.48
2023-04-18T09:44:20.095Z,74.87
2023-04-18T09:45:20.011Z,75.35
2023-04-18T09:46:20.245Z,74.94
2023-04-18T09:47:20.408Z,74.84
2023-04-18T09:48:20.576Z,75.04
2023-04-18T09:49:20.725Z,74.66
2023-04-18T09:50:20.935Z,74.15
2023-04-18T09:51:21.098Z,74.46
2023-04-18T09:52:21.288Z,74.43
2023-04-18T09:53:21.492Z,74.46
2023-04-18T09:54:21.711Z,74.32
2023-04-18T09:55:21.834Z,74.05
2023-04-18T09:56:22.027Z,74.66
2023-04-18T09:57:22.212Z,75.21
2023-04-18T09:58:22.424Z,74.97
2023-04-18T09:59:22.576Z,75.38
2023-04-18T10:00:22.780Z,74.56
2023-04-18T10:01:23.008Z,74.87
2023-04-18T10:02:23.258Z,74.70
2023-04-18T10:03:23.476Z,75.01
2023-04-18T10:04:23.529Z,75.18
2023-04-18T10:05:23.688Z,74.87
2023-04-18T10:06:23.838Z,74.80
2023-04-18T10:07:24.026Z,75.21
2023-04-18T10:08:24.267Z,75.11
2023-04-18T10:09:24.375Z,75.62
2023-04-18T10:10:24.582Z,75.79
2023-04-18T10:11:24.738Z,75.28
2023-04-18T10:12:24.953Z,75.69
2023-04-18T10:13:25.182Z,75.79
2023-04-18T10:14:26.397Z,75.82
2023-04-18T10:15:25.519Z,76.03
2023-04-18T10:16:25.717Z,75.82
2023-04-18T10:17:26.975Z,76.17
2023-04-18T10:18:26.122Z,76.24
2023-04-18T10:19:26.350Z,75.82
2023-04-18T10:20:26.432Z,75.82
2023-04-18T10:21:26.616Z,76.03
2023-04-18T10:22:26.804Z,76.14
2023-04-18T10:23:28.110Z,75.62
2023-04-18T10:24:27.186Z,75.52
2023-04-18T10:25:27.399Z,76.03
2023-04-18T10:26:27.578Z,75.69
2023-04-18T10:27:27.755Z,75.28
2023-04-18T10:28:27.967Z,75.31
2023-04-18T10:29:28.214Z,75.31
2023-04-18T10:30:28.312Z,75.21
2023-04-18T10:31:28.644Z,75.28
2023-04-18T10:32:28.702Z,75.07
2023-04-18T10:33:31.696Z,75.21
2023-04-18T10:34:29.011Z,75.11
2023-04-18T10:35:29.186Z,75.21
2023-04-18T10:36:29.381Z,75.11
2023-04-18T10:37:29.565Z,75.21
2023-04-18T10:38:29.789Z,75.31
2023-04-18T10:39:29.942Z,75.11
2023-04-18T10:40:30.121Z,75.01
2023-04-18T10:41:30.318Z,74.46
2023-04-18T10:42:30.499Z,74.60
2023-04-18T10:43:30.725Z,74.08
2023-04-18T10:44:30.894Z,73.78
2023-04-18T10:45:31.050Z,73.68
2023-04-18T10:46:32.870Z,73.03
2023-04-18T10:47:31.743Z,72.61
2023-04-18T10:48:31.608Z,72.31
2023-04-18T10:49:32.981Z,71.90
2023-04-18T10:50:31.994Z,71.49
2023-04-18T10:51:32.194Z,70.98
2023-04-18T10:52:32.416Z,71.49
2023-04-18T10:53:32.618Z,71.86
2023-04-18T10:54:32.750Z,71.56
2023-04-18T10:55:32.925Z,71.66
2023-04-18T10:56:33.140Z,71.77
2023-04-18T10:57:33.313Z,71.86
2023-04-18T10:58:33.523Z,71.66
2023-04-18T10:59:33.701Z,72.48
2023-04-18T11:00:33.977Z,71.62
2023-04-18T11:01:34.166Z,70.91
2023-04-18T11:02:34.341Z,70.61
2023-04-18T11:03:34.619Z,70.81
2023-04-18T11:04:35.555Z,70.74
2023-04-18T11:05:34.841Z,70.81
2023-04-18T11:06:35.060Z,69.41
2023-04-18T11:07:35.200Z,69.82
2023-04-18T11:08:35.413Z,69.61
2023-04-18T11:09:35.580Z,69.68
2023-04-18T11:10:35.786Z,69.58
2023-04-18T11:11:35.975Z,69.71
2023-04-18T11:12:36.296Z,69.92
2023-04-18T11:13:36.436Z,70.71
2023-04-18T11:14:36.479Z,69.89
2023-04-18T11:15:36.690Z,69.65
2023-04-18T11:16:36.932Z,69.24
2023-04-18T11:17:37.068Z,69.04
2023-04-18T11:18:37.257Z,69.24
2023-04-18T11:19:37.425Z,68.90
2023-04-18T11:20:37.599Z,69.11
2023-04-18T11:21:37.814Z,68.70
2023-04-18T11:22:37.965Z,68.32
2023-04-18T11:23:38.158Z,68.84
2023-04-18T11:24:38.335Z,69.14
2023-04-18T11:25:38.540Z,68.93
2023-04-18T11:26:38.733Z,69.01
2023-04-18T11:27:38.888Z,68.52
2023-04-18T11:28:39.109Z,68.32
2023-04-18T11:29:39.295Z,68.22
2023-04-18T11:30:39.516Z,68.52
2023-04-18T11:31:39.703Z,67.91
2023-04-18T11:32:39.904Z,68.32
2023-04-18T11:33:40.091Z,68.84
2023-04-18T11:34:40.277Z,68.12
2023-04-18T11:35:40.450Z,68.63
2023-04-18T11:36:40.648Z,68.29
2023-04-18T11:37:40.869Z,68.08
2023-04-18T11:38:41.025Z,68.29
2023-04-18T11:39:41.229Z,67.78
2023-04-18T11:40:41.403Z,67.98
2023-04-18T11:41:41.604Z,68.84
2023-04-18T11:42:41.841Z,69.21
2023-04-18T11:43:42.001Z,69.18
2023-04-18T11:44:42.191Z,69.38
2023-04-18T11:45:42.426Z,68.46
2023-04-18T11:46:42.591Z,68.57
2023-04-18T11:47:42.881Z,68.70
2023-04-18T11:48:43.003Z,69.31
2023-04-18T11:49:43.199Z,69.59
2023-04-18T11:50:43.384Z,69.18
2023-04-18T11:51:43.588Z,68.90
2023-04-18T11:52:43.759Z,69.82
2023-04-18T11:53:43.967Z,69.62
2023-04-18T11:54:44.175Z,69.85
2023-04-18T11:55:44.374Z,70.34
2023-04-18T11:56:44.588Z,70.10
2023-04-18T11:57:44.784Z,69.38
2023-04-18T11:58:44.981Z,69.28
2023-04-18T11:59:45.164Z,69.72
2023-04-18T12:00:45.362Z,70.64
2023-04-18T12:01:45.576Z,70.92
2023-04-18T12:02:45.841Z,70.92
2023-04-18T12:03:46.148Z,71.05
2023-04-18T12:04:46.341Z,70.78
2023-04-18T12:05:46.706Z,71.08
2023-04-18T12:06:46.552Z,71.90
2023-04-18T12:07:46.713Z,73.06
2023-04-18T12:08:46.880Z,73.33
2023-04-18T12:09:47.090Z,73.30
2023-04-18T12:10:47.285Z,73.06
2023-04-18T12:11:47.533Z,73.10
2023-04-18T12:12:47.700Z,72.55
2023-04-18T12:13:47.864Z,72.65
2023-04-18T12:14:48.082Z,72.65
2023-04-18T12:15:48.335Z,73.16
2023-04-18T12:16:48.504Z,73.23
2023-04-18T12:17:48.741Z,72.62
2023-04-18T12:18:48.857Z,72.86
2023-04-18T12:19:49.884Z,72.79
2023-04-18T12:20:49.286Z,73.61
2023-04-18T12:21:49.517Z,73.57
2023-04-18T12:22:49.695Z,73.23
2023-04-18T12:23:49.902Z,72.31
2023-04-18T12:24:50.117Z,71.56
2023-04-18T12:25:50.330Z,70.72
2023-04-18T12:26:50.576Z,70.61
2023-04-18T12:27:50.755Z,70.47
2023-04-18T12:28:50.954Z,71.29
2023-04-18T12:29:51.127Z,70.68
2023-04-18T12:30:51.338Z,71.15
2023-04-18T12:31:51.604Z,70.34
2023-04-18T12:32:51.781Z,70.34
2023-04-18T12:33:51.917Z,70.00
2023-04-18T12:34:52.136Z,69.79
2023-04-18T12:35:52.350Z,69.59
2023-04-18T12:36:52.574Z,70.10
2023-04-18T12:37:52.734Z,70.20
2023-04-18T12:38:52.961Z,69.66
2023-04-18T12:39:53.188Z,68.98
2023-04-18T12:40:53.358Z,69.62
2023-04-18T12:41:53.580Z,70.57
2023-04-18T12:42:53.786Z,71.26
2023-04-18T12:43:53.996Z,69.79
2023-04-18T12:44:54.207Z,70.88
2023-04-18T12:45:54.424Z,70.27
2023-04-18T12:46:54.700Z,70.57
2023-04-18T12:47:54.907Z,70.37
2023-04-18T12:48:55.063Z,70.64
2023-04-18T12:49:55.289Z,70.37
2023-04-18T12:50:55.516Z,70.23
2023-04-18T12:51:55.711Z,69.52
2023-04-18T12:52:55.881Z,70.03
2023-04-18T12:53:56.112Z,70.31
2023-04-18T12:54:56.312Z,70.23
2023-04-18T12:55:56.505Z,70.51